Pagrindinis puslapis
METAR-TAF:

METAR-TAF

Oro uostai :

Giddings-Lee County Airport

Giddings, Teksasas, Jungtinės Amerikos Valstijos

platuma: 30-10-09N, ilguma: 096-58-48W, Aukštis: 148 m

Dabartinis oras

Ataskaita buvo paskelbta 6 minutes, ne 04:55 UTC
Vėjas 3 kt iš Rytų
Temperatūra 20°C
Drėgmė 78%
Slėgis 1024 hPa
Matomumas: 16.1 km
Apsiniaukę ne aukštis 4500 ft

METAR: KGYB 140455Z AUTO 10003KT 10SM OVC045 20/16 A3023 RMK AO2 T01990164

Laikas: 00:01 (05:01 UTC)


TAF: trūkstamas

Orai ataskaitas ir orų prognozės (METAR, TAF).

turimą stotys yra geltonos ir raudonos taškus žemėlapyje.

Perkelti pele per norėdami pamatyti stoties vardą.

Tada spustelėkite, norėdami matyti oro stebėjimo ir prognozės.

Norėdami pakeisti žemėlapį: spustelėkite ant žalios mygtukų su juodo kryžiaus žemyn,; žalią mygtuką su brūkšneliu, jei norite nutolinti; arba žalių rodyklių gretimoms žemėlapius.


METAR-TAF: